Terminal Aerodrome Forecast
Issued by NWS

Home | Current Version | Previous Version | Text Only | Print | Product List | Glossary On
Versions: 1 2 3 4 5 6 7 8 9 10 11 12 13 14
000
FTUS46 KMTR 241418 AAA
TAFSTS
TAF AMD
KSTS 241418Z 2414/2512 VRB04KT P6SM OVC006
     FM241600 VRB04KT P6SM BKN007
     FM241800 19005KT P6SM FEW008
     FM242000 17011KT P6SM SCT180
     FM250400 16007KT P6SM SCT007
     FM250600 VRB03KT P6SM OVC006=

USA.gov is the U.S. government's official web portal to all federal, state and local government web resources and services.